Latest Weather Observations for Troughton Island

IDW60801

Issued at 4:03 pm WST Thursday 21 February 2019 (issued every 10 minutes, with the page automatically refreshed every 10 minutes)

About weather observations | Map of weather stations | Latest weather observations for WA | Other Formats
Station Details ID: 001007 Name: TROUGHTON ISLAND Lat: -13.75 Lon: 126.15 Height: 6.0 m
Data from the previous 72 hours. | See also: Recent months at Troughton Island
Date/Time
WST
Temp
°C
App
Temp
°C
Dew
Point
°C
Rel
Hum
%
Delta-T
°C
Wind Press
QNH
hPa
Press
MSL
hPa
Rain since
9am
mm
Dir  Spd
km/h
Gust
km/h
Spd
kts
Gust
kts
21/04:00pm 31.4 32.8 26.0 73 3.9 W 30 35 16 19 1009.2 1009.1 0.0
21/03:30pm 31.3 32.3 25.9 73 3.8 W 32 39 17 21 1009.3 1009.2 0.0
21/03:00pm 31.7 33.4 26.5 74 3.7 W 30 35 16 19 1009.7 1009.6 0.0
21/02:30pm 31.8 33.5 26.4 73 3.9 W 30 35 16 19 1010.0 1009.9 0.0
21/02:00pm 31.6 32.7 26.2 73 3.9 W 32 37 17 20 1010.2 1010.1 0.0
21/01:30pm 31.6 33.0 26.6 75 3.6 W 32 37 17 20 1010.5 1010.4 0.0
21/01:00pm 31.5 32.6 26.1 73 3.9 W 32 37 17 20 1010.8 1010.7 0.0
21/12:30pm 31.6 32.7 26.2 73 3.9 W 32 35 17 19 1011.3 1011.2 0.0
21/12:00pm 31.8 33.6 26.1 72 4.1 WSW 28 33 15 18 1011.7 1011.6 0.0
21/11:30am 32.5 34.7 26.6 71 4.2 WSW 28 32 15 17 1012.3 1012.2 0.0
21/11:00am 32.0 33.1 26.1 71 4.2 WSW 32 39 17 21 1012.6 1012.5 0.0
21/10:30am 32.2 33.7 26.7 72 4.0 W 32 35 17 19 1012.7 1012.6 0.0
21/10:00am 31.8 32.4 25.6 69 4.4 WSW 33 39 18 21 1012.9 1012.8 0.0
21/09:30am 31.5 32.6 25.6 71 4.2 WSW 30 35 16 19 1013.3 1013.2 0.0
21/09:00am 31.8 33.8 26.4 73 3.9 WSW 28 35 15 19 1013.4 1013.3 0.0
21/08:30am 31.1 31.9 25.7 73 3.8 W 32 35 17 19 1013.3 1013.2 0.0
21/08:00am 30.5 31.3 25.6 75 3.5 WSW 32 37 17 20 1013.0 1012.9 0.0
21/07:30am 30.2 31.5 25.9 78 3.1 W 30 35 16 19 1012.9 1012.8 0.0
21/07:00am 29.9 31.7 26.1 80 2.7 W 28 35 15 19 1012.6 1012.5 0.0
21/06:30am 29.4 31.4 25.8 81 2.6 W 26 33 14 18 1012.3 1012.2 0.0
21/06:00am 29.0 31.0 25.8 83 2.3 W 26 32 14 17 1012.1 1012.0 0.0
21/05:30am 28.9 31.0 25.9 84 2.1 W 26 30 14 16 1011.8 1011.7 0.0
21/05:00am 29.0 31.0 25.8 83 2.3 W 26 32 14 17 1011.5 1011.4 0.0
21/04:30am 29.0 31.0 25.8 83 2.3 W 26 32 14 17 1011.1 1011.0 0.0
21/04:00am 29.0 31.3 25.6 82 2.4 W 24 30 13 16 1010.9 1010.8 0.0
21/03:30am 28.9 30.4 25.5 82 2.4 W 28 32 15 17 1010.6 1010.5 0.0
21/03:00am 28.9 31.5 26.1 85 2.0 W 24 30 13 16 1010.6 1010.5 0.0
21/02:30am 28.7 31.8 25.7 84 2.1 W 20 26 11 14 1010.7 1010.6 0.0
21/02:00am 28.6 31.0 25.8 85 2.0 W 24 28 13 15 1010.5 1010.4 0.0
21/01:30am 28.5 30.6 25.3 83 2.2 WSW 24 26 13 14 1010.6 1010.5 0.0
21/01:00am 28.6 30.5 25.0 81 2.5 WSW 24 30 13 16 1010.9 1010.8 0.0
21/12:30am 28.4 31.2 25.2 83 2.2 WSW 20 28 11 15 1011.1 1011.0 0.0
21/12:00am 29.1 31.1 25.7 82 2.4 W 26 30 14 16 1011.4 1011.3 0.0
 
Date/Time
WST
Temp
°C
App
Temp
°C
Dew
Point
°C
Rel
Hum
%
Delta-T
°C
Wind Press
QNH
hPa
Press
MSL
hPa
Rain since
9am
mm
Dir  Spd
km/h
Gust
km/h
Spd
kts
Gust
kts
20/11:30pm 29.1 30.7 26.3 85 2.0 WNW 30 33 16 18 1011.7 1011.6 0.0
20/11:00pm 28.8 31.7 25.4 82 2.4 WNW 20 28 11 15 1012.2 1012.1 0.0
20/10:30pm 28.5 32.6 24.5 79 2.8 W 11 13 6 7 1012.8 1012.7 0.0
20/10:00pm 28.3 32.1 23.4 75 3.4 WSW 9 13 5 7 1013.0 1012.9 0.0
20/09:30pm 27.9 31.6 23.9 79 2.8 SW 11 13 6 7 1013.0 1012.9 0.0
20/09:00pm 28.0 34.3 24.8 83 2.2 CALM 0 4 0 2 1012.9 1012.8 0.0
20/08:30pm 28.1 30.5 23.0 74 3.5 SSW 15 20 8 11 1012.9 1012.8 0.0
20/08:00pm 28.1 29.5 23.5 76 3.2 SSE 22 28 12 15 1012.9 1012.8 0.0
20/07:41pm 28.9 29.4 23.3 72 3.8 S 26 43 14 23 1012.9 1012.8 0.0
20/07:30pm 29.6 31.5 23.8 71 4.0 S 20 32 11 17 1012.8 1012.7 0.0
20/07:00pm 29.6 31.2 25.1 77 3.2 W 26 32 14 17 1011.9 1011.8 0.0
20/06:30pm 29.5 31.4 25.0 77 3.2 W 24 28 13 15 1011.4 1011.3 0.0
20/06:00pm 29.7 31.0 24.6 74 3.6 W 26 32 14 17 1010.8 1010.7 0.0
20/05:30pm 30.3 31.0 24.9 73 3.8 W 30 35 16 19 1010.4 1010.3 0.0
20/05:00pm 30.9 31.8 25.3 72 4.0 W 30 35 16 19 1010.0 1009.9 0.0
20/04:30pm 31.3 32.6 25.2 70 4.3 W 28 32 15 17 1009.6 1009.5 0.0
20/04:00pm 31.5 33.0 25.6 71 4.2 WSW 28 33 15 18 1009.5 1009.4 0.0
20/03:30pm 31.8 32.8 25.9 71 4.2 WSW 32 35 17 19 1009.7 1009.6 0.0
20/03:00pm 31.7 32.5 26.0 72 4.1 WSW 33 39 18 21 1009.9 1009.8 0.0
20/02:30pm 31.9 33.2 26.4 72 3.9 WSW 32 37 17 20 1010.2 1010.1 0.0
20/02:00pm 31.9 33.4 26.7 74 3.7 W 32 39 17 21 1010.4 1010.3 0.0
20/01:30pm 31.8 33.3 26.1 72 4.1 W 30 35 16 19 1010.9 1010.8 0.0
20/01:00pm 32.1 33.2 26.2 71 4.2 W 32 39 17 21 1011.2 1011.1 0.0
20/12:30pm 32.9 34.0 26.2 68 4.8 W 32 37 17 20 1011.8 1011.7 0.0
20/12:00pm 32.6 34.0 25.4 66 5.1 W 28 35 15 19 1012.7 1012.6 0.0
20/11:30am 32.1 33.4 25.9 70 4.4 W 30 33 16 18 1013.0 1012.9 0.0
20/11:00am 32.6 34.5 26.2 69 4.6 W 28 32 15 17 1013.3 1013.2 0.0
20/10:30am 32.1 34.1 25.7 69 4.6 W 26 32 14 17 1013.6 1013.5 0.0
20/10:00am 32.1 34.4 26.2 71 4.2 W 26 33 14 18 1013.7 1013.6 0.0
20/09:30am 31.9 35.0 25.7 69 4.4 SW 20 24 11 13 1014.5 1014.4 0.0
20/09:00am 31.6 35.0 26.2 73 3.9 SSW 20 26 11 14 1015.1 1015.0 0.0
20/08:30am 31.3 33.8 25.9 73 3.8 WSW 24 28 13 15 1014.4 1014.3 0.0
20/08:00am 31.0 33.4 25.8 74 3.7 WSW 24 30 13 16 1014.2 1014.1 0.0
20/07:30am 30.4 32.5 25.9 77 3.2 WSW 26 32 14 17 1014.0 1013.9 0.0
20/07:00am 29.3 32.7 26.1 83 2.3 SW 20 26 11 14 1013.6 1013.5 0.0
20/06:30am 29.2 31.7 26.0 83 2.3 WSW 24 28 13 15 1013.4 1013.3 0.0
20/06:00am 29.0 30.9 25.6 82 2.4 WSW 26 32 14 17 1013.0 1012.9 0.0
20/05:30am 29.0 30.1 25.6 82 2.4 WSW 30 35 16 19 1012.7 1012.6 0.0
20/05:00am 29.1 31.1 26.3 85 2.0 WSW 28 32 15 17 1012.3 1012.2 0.0
20/04:30am 28.9 30.2 25.9 84 2.1 W 30 33 16 18 1011.8 1011.7 0.0
20/04:00am 29.0 30.9 26.2 85 2.0 W 28 35 15 19 1011.6 1011.5 0.0
20/03:30am 29.1 30.4 25.9 83 2.3 W 30 35 16 19 1011.6 1011.5 0.0
20/03:00am 29.0 30.6 25.8 83 2.3 W 28 33 15 18 1011.7 1011.6 0.0
20/02:30am 29.1 30.6 25.5 81 2.5 W 28 33 15 18 1011.9 1011.8 0.0
20/02:00am 29.0 30.9 25.6 82 2.4 W 26 30 14 16 1012.1 1012.0 0.0
20/01:30am 29.1 30.9 25.5 81 2.5 W 26 32 14 17 1012.4 1012.3 0.0
20/01:00am 29.1 30.3 25.1 79 2.8 W 28 32 15 17 1012.7 1012.6 0.0
20/12:30am 29.1 31.2 25.9 83 2.3 W 26 32 14 17 1012.7 1012.6 0.0
20/12:00am 29.2 31.0 26.0 83 2.3 W 28 33 15 18 1012.8 1012.7 0.0
 
Date/Time
WST
Temp
°C
App
Temp
°C
Dew
Point
°C
Rel
Hum
%
Delta-T
°C
Wind Press
QNH
hPa
Press
MSL
hPa
Rain since
9am
mm
Dir  Spd
km/h
Gust
km/h
Spd
kts
Gust
kts
19/11:30pm 29.1 30.8 25.9 83 2.3 W 28 33 15 18 1013.0 1012.9 0.0
19/11:00pm 29.3 30.8 26.1 83 2.3 W 30 35 16 19 1013.3 1013.2 0.0
19/10:30pm 29.2 30.7 26.2 84 2.1 W 30 35 16 19 1013.4 1013.3 0.0
19/10:00pm 29.4 30.9 26.2 83 2.3 W 30 35 16 19 1013.6 1013.5 0.0
19/09:30pm 29.4 31.8 26.4 84 2.1 W 26 33 14 18 1013.4 1013.3 0.0
19/09:00pm 29.4 30.5 26.2 83 2.3 WNW 32 35 17 19 1012.8 1012.7 0.0
19/08:30pm 29.6 30.9 26.4 83 2.3 W 32 37 17 20 1012.6 1012.5 0.0
19/08:00pm 29.4 31.3 26.2 83 2.3 W 28 32 15 17 1012.2 1012.1 0.0
19/07:30pm 29.5 30.5 25.9 81 2.6 W 32 37 17 20 1011.9 1011.8 0.0
19/07:00pm 29.6 31.3 26.4 83 2.3 W 30 35 16 19 1011.4 1011.3 0.0
19/06:30pm 29.6 30.6 26.0 81 2.6 W 32 39 17 21 1011.1 1011.0 0.0
19/06:00pm 29.7 30.5 25.7 79 2.8 W 32 39 17 21 1010.8 1010.7 0.0
19/05:30pm 30.4 31.8 26.6 80 2.7 W 32 37 17 20 1010.5 1010.4 0.0
19/05:00pm 30.9 31.9 25.9 74 3.6 W 32 37 17 20 1010.5 1010.4 0.0
19/04:30pm 31.4 32.9 25.5 71 4.2 W 28 35 15 19 1010.2 1010.1 0.0
19/04:00pm 31.6 33.6 26.4 74 3.7 W 28 33 15 18 1010.3 1010.2 0.0
19/03:30pm 31.8 33.8 26.4 73 3.9 W 28 33 15 18 1010.3 1010.2 0.0
19/03:00pm 31.8 33.6 26.6 74 3.7 W 30 35 16 19 1010.4 1010.3 0.0
19/02:30pm 32.1 34.0 26.2 71 4.2 W 28 33 15 18 1010.5 1010.4 0.0
19/02:00pm 32.2 33.9 26.5 72 4.1 W 30 33 16 18 1010.8 1010.7 0.0
19/01:30pm 32.8 34.8 26.4 69 4.6 W 28 32 15 17 1011.0 1010.9 0.0
19/01:00pm 32.8 35.0 26.1 68 4.8 W 26 32 14 17 1011.1 1011.0 0.0
19/12:30pm 33.1 36.2 26.9 70 4.5 W 24 28 13 15 1011.4 1011.3 0.0
19/12:00pm 32.8 36.1 26.6 70 4.5 W 22 26 12 14 1011.8 1011.7 0.0
19/11:30am 33.0 36.6 26.5 68 4.7 W 20 24 11 13 1012.2 1012.1 0.0
19/11:00am 32.2 35.5 26.0 70 4.4 W 20 24 11 13 1012.5 1012.4 0.0
19/10:30am 32.5 36.2 26.6 71 4.2 W 20 24 11 13 1012.5 1012.4 0.0
19/10:00am 32.1 35.1 26.2 71 4.2 SW 22 24 12 13 1012.6 1012.5 0.0
19/09:30am 31.7 33.9 25.5 69 4.4 WSW 24 28 13 15 1012.4 1012.3 0.0
19/09:00am 31.9 34.7 26.4 72 3.9 WSW 24 28 13 15 1012.5 1012.4 -
19/08:30am 31.1 34.0 25.4 71 4.0 W 20 26 11 14 1012.6 1012.5 -
19/08:00am 30.3 33.5 25.6 76 3.3 W 19 24 10 13 1012.5 1012.4 -
19/07:30am 30.1 33.1 25.6 77 3.2 WSW 20 24 11 13 1012.4 1012.3 -
19/07:00am 29.7 32.6 25.4 78 3.0 WSW 20 24 11 13 1012.1 1012.0 -
19/06:30am 29.0 31.8 25.2 80 2.7 WSW 20 26 11 14 1011.8 1011.7 -
19/06:00am 28.6 31.0 25.2 82 2.4 W 22 28 12 15 1011.0 1010.9 -
19/05:30am 28.6 30.7 25.4 83 2.3 WSW 24 28 13 15 1011.0 1010.9 -
19/05:00am 28.7 30.8 25.3 82 2.4 W 24 30 13 16 1011.0 1010.9 -
19/04:30am 28.6 30.1 25.0 81 2.5 W 26 30 14 16 1010.9 1010.8 -
19/04:00am 28.8 30.9 25.4 82 2.4 WSW 24 30 13 16 1010.9 1010.8 -
19/03:30am 28.9 30.7 25.5 82 2.4 W 26 33 14 18 1010.5 1010.4 -
19/03:00am 28.8 30.2 25.4 82 2.4 W 28 32 15 17 1010.3 1010.2 -
19/02:30am 28.8 30.2 25.4 82 2.4 W 28 33 15 18 1010.5 1010.4 -
19/02:00am 28.9 29.7 25.1 80 2.7 W 30 33 16 18 1010.6 1010.5 -
19/01:30am 29.0 29.9 25.2 80 2.7 W 30 35 16 19 1010.9 1010.8 -
19/01:00am 29.0 30.1 25.0 79 2.8 W 28 32 15 17 1011.2 1011.1 -
19/12:30am 29.1 29.8 25.5 81 2.5 WSW 32 39 17 21 1011.5 1011.4 -
19/12:00am 29.3 29.8 25.5 80 2.7 WSW 33 37 18 20 1012.1 1012.0 -
 
Date/Time
WST
Temp
°C
App
Temp
°C
Dew
Point
°C
Rel
Hum
%
Delta-T
°C
Wind Press
QNH
hPa
Press
MSL
hPa
Rain since
9am
mm
Dir  Spd
km/h
Gust
km/h
Spd
kts
Gust
kts
18/11:30pm 29.3 30.1 25.7 81 2.5 WSW 32 37 17 20 1012.4 1012.3 -
18/11:00pm 29.2 30.3 25.6 81 2.5 WSW 30 35 16 19 1012.7 1012.6 -
18/10:30pm 29.3 30.0 25.5 80 2.7 WSW 32 37 17 20 1012.7 1012.6 -
18/09:00pm 29.3 30.8 25.5 80 2.7 W 28 33 15 18 1012.1 1012.0 0.0
18/08:30pm 29.4 30.8 25.4 79 2.8 W 28 33 15 18 1012.0 1011.9 0.0
18/08:00pm 29.5 30.7 25.7 80 2.7 W 30 35 16 19 1011.4 1011.3 0.0
18/07:30pm 29.5 31.0 25.5 79 2.8 W 28 35 15 19 1010.9 1010.8 0.0
18/07:00pm 29.6 30.7 25.6 79 2.8 W 30 33 16 18 1010.6 1010.5 0.0
18/06:30pm 29.7 30.3 25.4 78 3.0 W 32 35 17 19 1010.2 1010.1 0.0
18/06:00pm 29.7 31.0 25.2 77 3.2 W 28 33 15 18 1010.0 1009.9 0.0
18/05:30pm 30.1 31.2 24.9 73 3.6 W 28 35 15 19 1009.9 1009.8 0.0
18/05:00pm 30.7 31.9 25.1 72 3.9 W 28 33 15 18 1009.6 1009.5 0.0
18/04:30pm 31.3 32.7 25.4 71 4.2 W 28 33 15 18 1009.5 1009.4 0.0

Other formats

Comma delimited format used in spreadsheet applications
http://www.bom.gov.au/fwo/IDW60801/IDW60801.94102.axf

JavaScript Object Notation format (JSON) in row-major order
http://www.bom.gov.au/fwo/IDW60801/IDW60801.94102.json

Data quality

Most of these data are generated automatically and are frequently updated. Quality checks on data are not normally performed. It is possible for incorrect values to appear. Refer to information at About Latest Weather Observations and please check the disclaimer before using these data.